Terminal Aerodrome Forecast
Issued by NWS

Home | Current Version | Previous Version | Text Only | Print | Product List | Glossary On
Versions: 1 2 3 4 5 6 7 8 9 10 11 12 13 14 15 16 17 18 19 20 21 22 23 24
000
FTUS42 KMFL 232341
TAFOPF
TAF
KOPF 232341Z 2400/2424 13010KT P6SM SCT025 BKN120 BKN250
     FM240200 VRB05KT P6SM FEW020 SCT120
     FM241200 12006KT P6SM VCSH SCT025 SCT045 BKN150
     FM241800 14010KT P6SM VCTS SCT025CB BKN050 BKN100=

USA.gov is the U.S. government's official web portal to all federal, state and local government web resources and services.